createdAt,value
2018-02-10T00:01:07.848Z,59.00
2018-02-10T00:03:35.404Z,59.20
2018-02-10T00:06:04.458Z,58.70
2018-02-10T00:08:32.211Z,58.70
2018-02-10T00:10:59.889Z,58.60
2018-02-10T00:13:28.185Z,58.90
2018-02-10T00:15:55.961Z,58.90
2018-02-10T00:18:23.565Z,59.00
2018-02-10T00:20:51.155Z,58.90
2018-02-10T00:23:20.368Z,59.40
2018-02-10T00:25:48.709Z,59.50
2018-02-10T00:28:16.323Z,59.50
2018-02-10T00:30:43.932Z,59.40
2018-02-10T00:33:12.473Z,58.80
2018-02-10T00:35:40.046Z,59.00
2018-02-10T00:38:08.429Z,59.00
2018-02-10T00:40:36.038Z,58.90
2018-02-10T00:43:04.368Z,59.00
2018-02-10T00:45:31.958Z,59.30
2018-02-10T00:48:00.499Z,59.20
2018-02-10T00:50:28.837Z,59.80
2018-02-10T00:52:56.380Z,59.80
2018-02-10T00:55:24.883Z,60.00
2018-02-10T00:57:53.273Z,60.30
2018-02-10T01:00:20.971Z,60.30
2018-02-10T01:02:49.296Z,62.10
2018-02-10T01:05:16.907Z,62.00
2018-02-10T01:07:44.524Z,62.60
2018-02-10T01:10:12.082Z,63.00
2018-02-10T01:12:39.688Z,63.50
2018-02-10T01:15:08.935Z,63.80
2018-02-10T01:17:36.483Z,63.80
2018-02-10T01:20:05.053Z,65.10
2018-02-10T01:22:34.053Z,64.90
2018-02-10T01:25:01.639Z,64.90
2018-02-10T01:27:29.251Z,64.80
2018-02-10T01:29:56.826Z,65.20
2018-02-10T01:32:24.464Z,65.70
2018-02-10T01:34:52.046Z,65.80
2018-02-10T01:37:19.588Z,66.10
2018-02-10T01:39:47.210Z,65.80
2018-02-10T01:42:14.924Z,66.00
2018-02-10T01:44:42.543Z,66.40
2018-02-10T01:47:10.141Z,66.50
2018-02-10T01:49:37.768Z,66.20
2018-02-10T01:52:05.317Z,66.60
2018-02-10T01:54:33.708Z,66.70
2018-02-10T01:57:01.246Z,66.80
2018-02-10T01:59:28.823Z,67.10
2018-02-10T02:01:56.386Z,66.70
2018-02-10T02:04:24.022Z,67.00
2018-02-10T02:06:51.579Z,67.20
2018-02-10T02:09:19.302Z,67.60
2018-02-10T02:11:46.910Z,67.40
2018-02-10T02:14:14.465Z,67.50
2018-02-10T02:16:42.082Z,67.60
2018-02-10T02:19:09.793Z,67.70
2018-02-10T02:21:37.444Z,67.80
2018-02-10T02:24:06.346Z,68.30
2018-02-10T02:26:34.061Z,68.30
2018-02-10T02:29:01.659Z,68.30
2018-02-10T02:31:29.222Z,68.30
2018-02-10T02:33:56.820Z,68.40
2018-02-10T02:36:25.181Z,68.70
2018-02-10T02:38:52.748Z,68.70
2018-02-10T02:41:20.320Z,68.80
2018-02-10T02:43:47.997Z,68.40
2018-02-10T02:46:15.587Z,68.50
2018-02-10T02:48:43.266Z,68.00
2018-02-10T02:51:10.874Z,68.40
2018-02-10T02:53:38.439Z,68.60
2018-02-10T02:56:05.988Z,68.50
2018-02-10T02:58:34.383Z,68.50
2018-02-10T03:01:02.039Z,68.50
2018-02-10T03:03:29.648Z,68.60
2018-02-10T03:05:57.260Z,68.30
2018-02-10T03:08:24.927Z,68.30
2018-02-10T03:10:52.495Z,67.50
2018-02-10T03:13:20.101Z,67.50
2018-02-10T03:15:47.673Z,67.10
2018-02-10T03:18:16.031Z,66.90
2018-02-10T03:20:43.611Z,66.90
2018-02-10T03:23:11.209Z,66.90
2018-02-10T03:25:38.791Z,67.20
2018-02-10T03:28:06.364Z,67.00
2018-02-10T03:30:35.671Z,67.00
2018-02-10T03:33:03.287Z,67.00
2018-02-10T03:35:30.866Z,66.80
2018-02-10T03:37:58.481Z,66.50
2018-02-10T03:40:26.140Z,66.60
2018-02-10T03:42:53.815Z,66.30
2018-02-10T03:45:21.401Z,66.20
2018-02-10T03:47:48.996Z,66.10
2018-02-10T03:50:17.341Z,66.00
2018-02-10T03:52:44.924Z,66.30
2018-02-10T03:55:12.503Z,66.00
2018-02-10T03:57:40.105Z,65.70
2018-02-10T04:00:07.698Z,66.00
2018-02-10T04:02:35.317Z,65.90
2018-02-10T04:05:02.918Z,65.90
2018-02-10T04:07:31.248Z,65.70
2018-02-10T04:09:58.806Z,65.60
2018-02-10T04:12:27.162Z,65.80
2018-02-10T04:14:54.745Z,65.80
2018-02-10T04:17:22.354Z,65.90
2018-02-10T04:19:49.957Z,65.60
2018-02-10T04:22:17.543Z,65.70
2018-02-10T04:24:45.131Z,65.70
2018-02-10T04:27:12.720Z,65.40
2018-02-10T04:29:40.350Z,65.20
2018-02-10T04:32:07.921Z,65.30
2018-02-10T04:34:35.504Z,65.00
2018-02-10T04:37:03.367Z,65.00
2018-02-10T04:39:31.752Z,65.20
2018-02-10T04:41:59.378Z,65.30
2018-02-10T04:44:26.938Z,65.20
2018-02-10T04:46:54.538Z,65.00
2018-02-10T04:49:22.122Z,65.20
2018-02-10T04:51:49.669Z,65.10
2018-02-10T04:54:17.243Z,65.20
2018-02-10T04:56:44.787Z,65.40
2018-02-10T04:59:13.153Z,65.90
2018-02-10T05:01:41.462Z,65.40
2018-02-10T05:04:09.086Z,65.30
2018-02-10T05:06:36.680Z,65.40
2018-02-10T05:09:04.338Z,65.20
2018-02-10T05:11:32.687Z,65.20
2018-02-10T05:14:00.265Z,65.20
2018-02-10T05:16:27.940Z,65.20
2018-02-10T05:18:55.513Z,65.10
2018-02-10T05:21:23.097Z,65.00
2018-02-10T05:23:50.688Z,65.40
2018-02-10T05:26:18.253Z,65.30
2018-02-10T05:28:45.938Z,65.00
2018-02-10T05:31:13.529Z,65.00
2018-02-10T05:33:41.076Z,64.80
2018-02-10T05:36:08.724Z,64.80
2018-02-10T05:38:36.292Z,64.70
2018-02-10T05:41:04.758Z,64.80
2018-02-10T05:43:32.333Z,64.80
2018-02-10T05:45:59.941Z,64.90
2018-02-10T05:48:28.369Z,64.00
2018-02-10T05:50:56.002Z,64.00
2018-02-10T05:53:23.672Z,64.20
2018-02-10T05:55:51.259Z,64.20
2018-02-10T05:58:18.857Z,64.10
2018-02-10T06:00:46.445Z,63.90
2018-02-10T06:03:14.093Z,63.70
2018-02-10T06:05:41.688Z,63.50
2018-02-10T06:08:10.010Z,63.80
2018-02-10T06:10:38.536Z,63.90
2018-02-10T06:13:06.235Z,64.00
2018-02-10T06:15:34.682Z,63.90
2018-02-10T06:18:02.399Z,63.80
2018-02-10T06:20:30.015Z,63.90
2018-02-10T06:22:58.353Z,63.30
2018-02-10T06:25:26.719Z,62.90
2018-02-10T06:27:54.325Z,63.00
2018-02-10T06:30:22.027Z,62.90
2018-02-10T06:32:49.638Z,62.90
2018-02-10T06:35:18.534Z,62.80
2018-02-10T06:37:46.096Z,62.70
2018-02-10T06:40:13.771Z,62.60
2018-02-10T06:42:41.342Z,62.70
2018-02-10T06:45:08.951Z,62.80
2018-02-10T06:47:36.636Z,62.80
2018-02-10T06:50:05.572Z,62.60
2018-02-10T06:52:35.094Z,62.70
2018-02-10T06:55:03.410Z,62.40
2018-02-10T06:57:30.956Z,62.40
2018-02-10T06:59:58.548Z,62.50
2018-02-10T07:02:26.196Z,62.20
2018-02-10T07:04:53.934Z,62.00
2018-02-10T07:07:21.555Z,61.90
2018-02-10T07:09:49.190Z,61.60
2018-02-10T07:12:17.495Z,61.60
2018-02-10T07:14:45.064Z,61.70
2018-02-10T07:17:12.656Z,61.60
2018-02-10T07:19:40.219Z,61.50
2018-02-10T07:22:07.795Z,61.60
2018-02-10T07:24:36.135Z,61.30
2018-02-10T07:27:04.994Z,61.10
2018-02-10T07:29:32.593Z,61.10
2018-02-10T07:32:00.194Z,60.90
2018-02-10T07:34:28.018Z,61.10
2018-02-10T07:36:55.587Z,61.30
2018-02-10T07:39:23.155Z,61.10
2018-02-10T07:41:50.704Z,60.80
2018-02-10T07:44:18.288Z,60.60
2018-02-10T07:46:45.836Z,60.70
2018-02-10T07:49:14.184Z,60.50
2018-02-10T07:51:41.771Z,60.60
2018-02-10T07:54:09.372Z,60.50
2018-02-10T07:56:37.703Z,60.10
2018-02-10T08:01:38.014Z,59.80
2018-02-10T08:04:06.511Z,59.80
2018-02-10T08:06:34.566Z,59.80
2018-02-10T08:09:03.354Z,59.70
2018-02-10T08:11:31.692Z,59.30
2018-02-10T08:14:00.097Z,59.40
2018-02-10T08:16:28.490Z,59.10
2018-02-10T08:18:56.136Z,59.20
2018-02-10T08:21:23.735Z,59.20
2018-02-10T08:23:51.288Z,59.00
2018-02-10T08:26:18.871Z,58.90
2018-02-10T08:28:46.443Z,58.50
2018-02-10T08:31:14.807Z,58.70
2018-02-10T08:33:43.170Z,58.20
2018-02-10T08:36:10.734Z,58.20
2018-02-10T08:38:38.402Z,58.30
2018-02-10T08:41:06.013Z,57.90
2018-02-10T08:43:34.308Z,58.20
2018-02-10T08:46:02.032Z,57.80
2018-02-10T08:48:29.588Z,57.70
2018-02-10T08:50:57.900Z,57.80
2018-02-10T08:53:25.575Z,57.80
2018-02-10T08:55:53.163Z,57.70
2018-02-10T08:58:20.784Z,57.30
2018-02-10T09:00:48.404Z,57.70
2018-02-10T09:03:16.013Z,57.20
2018-02-10T09:05:43.644Z,56.70
2018-02-10T09:08:12.079Z,56.40
2018-02-10T09:10:39.698Z,56.40
2018-02-10T09:13:07.349Z,56.70
2018-02-10T09:15:36.051Z,56.10
2018-02-10T09:18:04.331Z,56.00
2018-02-10T09:20:32.048Z,55.60
2018-02-10T09:22:59.698Z,55.70
2018-02-10T09:25:27.366Z,55.70
2018-02-10T09:27:55.004Z,56.00
2018-02-10T09:30:22.605Z,56.10
2018-02-10T09:32:51.013Z,56.20
2018-02-10T09:35:18.569Z,56.20
2018-02-10T09:37:46.270Z,56.20
2018-02-10T09:40:14.761Z,56.70
2018-02-10T09:42:42.435Z,56.70
2018-02-10T09:45:10.132Z,56.70
2018-02-10T09:47:38.547Z,56.60
2018-02-10T09:50:06.152Z,56.60
2018-02-10T09:52:34.787Z,56.60
2018-02-10T09:55:02.484Z,56.20
2018-02-10T09:57:30.246Z,56.00
2018-02-10T09:59:57.872Z,55.70
2018-02-10T10:02:26.558Z,55.40
2018-02-10T10:04:54.224Z,55.00
2018-02-10T10:07:21.851Z,55.30
2018-02-10T10:09:49.449Z,55.60
2018-02-10T10:12:17.851Z,55.10
2018-02-10T10:14:45.532Z,55.10
2018-02-10T10:17:13.989Z,54.50
2018-02-10T10:19:42.342Z,54.00
2018-02-10T10:22:10.028Z,54.00
2018-02-10T10:24:37.696Z,54.70
2018-02-10T10:27:05.961Z,54.10
2018-02-10T10:29:34.467Z,53.30
2018-02-10T10:32:02.079Z,53.00
2018-02-10T10:34:30.515Z,52.30
2018-02-10T10:36:58.152Z,52.30
2018-02-10T10:39:25.926Z,52.10
2018-02-10T10:41:54.335Z,53.10
2018-02-10T10:44:21.912Z,53.10
2018-02-10T10:46:49.525Z,53.50
2018-02-10T10:49:17.139Z,52.70
2018-02-10T10:51:44.691Z,52.40
2018-02-10T10:54:12.277Z,51.70
2018-02-10T10:56:39.817Z,51.80
2018-02-10T10:59:07.495Z,51.90
2018-02-10T11:01:35.835Z,52.00
2018-02-10T11:04:03.381Z,51.10
2018-02-10T11:06:30.983Z,51.60
2018-02-10T11:08:58.536Z,51.90
2018-02-10T11:11:26.947Z,51.30
2018-02-10T11:13:54.497Z,51.20
2018-02-10T11:16:22.043Z,51.30
2018-02-10T11:18:49.605Z,51.30
2018-02-10T11:21:17.209Z,50.80
2018-02-10T11:23:45.607Z,51.30
2018-02-10T11:26:13.174Z,51.30
2018-02-10T11:28:40.732Z,50.80
2018-02-10T11:31:10.216Z,50.00
2018-02-10T11:33:38.570Z,49.90
2018-02-10T11:36:06.905Z,49.70
2018-02-10T11:38:35.211Z,49.70
2018-02-10T11:41:02.808Z,49.10
2018-02-10T11:43:31.172Z,48.30
2018-02-10T11:45:58.772Z,48.30
2018-02-10T11:48:26.367Z,48.30
2018-02-10T11:50:54.048Z,48.00
2018-02-10T11:53:21.685Z,48.20
2018-02-10T11:55:49.285Z,48.70
2018-02-10T11:58:17.010Z,48.50
2018-02-10T12:00:44.581Z,47.90
2018-02-10T12:03:12.940Z,47.90
2018-02-10T12:05:41.290Z,48.30
2018-02-10T12:08:11.336Z,49.00
2018-02-10T12:10:38.880Z,49.00
2018-02-10T12:13:06.469Z,49.10
2018-02-10T12:15:35.741Z,48.90
2018-02-10T12:18:03.299Z,49.00
2018-02-10T12:20:30.858Z,48.30
2018-02-10T12:22:59.154Z,47.90
2018-02-10T12:25:26.871Z,47.90
2018-02-10T12:27:54.459Z,48.80
2018-02-10T12:30:22.216Z,48.90
2018-02-10T12:32:49.788Z,49.20
2018-02-10T12:35:18.211Z,49.40
2018-02-10T12:37:45.767Z,49.50
2018-02-10T12:40:13.355Z,49.50
2018-02-10T12:42:40.896Z,49.50
2018-02-10T12:45:09.388Z,49.60
2018-02-10T12:47:45.710Z,49.70
2018-02-10T12:50:13.397Z,48.60
2018-02-10T12:52:40.950Z,48.60
2018-02-10T12:55:08.560Z,49.10
2018-02-10T12:57:37.661Z,49.10
2018-02-10T13:00:05.291Z,49.10
2018-02-10T13:02:32.945Z,48.80
2018-02-10T13:05:00.599Z,49.00
2018-02-10T13:07:28.228Z,48.60
2018-02-10T13:09:55.916Z,48.90
2018-02-10T13:12:23.461Z,48.20
2018-02-10T13:14:51.021Z,47.80
2018-02-10T13:17:18.630Z,47.80
2018-02-10T13:19:46.218Z,48.00
2018-02-10T13:22:13.783Z,48.50
2018-02-10T13:24:42.141Z,48.50
2018-02-10T13:27:09.717Z,48.40
2018-02-10T13:29:38.053Z,48.20
2018-02-10T13:32:06.394Z,48.00
2018-02-10T13:34:34.564Z,47.90
2018-02-10T13:37:02.145Z,48.40
2018-02-10T13:39:29.694Z,47.80
2018-02-10T13:41:58.112Z,48.20
2018-02-10T13:44:25.717Z,48.30
2018-02-10T13:46:55.236Z,48.40
2018-02-10T13:49:22.912Z,49.20
2018-02-10T13:51:50.602Z,48.50
2018-02-10T13:54:18.168Z,49.10
2018-02-10T13:56:45.734Z,49.80
2018-02-10T13:59:13.289Z,48.00
2018-02-10T14:01:40.871Z,47.70
2018-02-10T14:04:08.412Z,48.40
2018-02-10T14:06:36.784Z,48.80
2018-02-10T14:09:04.359Z,48.80
2018-02-10T14:11:32.704Z,49.30
2018-02-10T14:14:00.380Z,49.30
2018-02-10T14:16:28.216Z,49.60
2018-02-10T14:18:55.936Z,49.90
2018-02-10T14:21:23.532Z,50.30
2018-02-10T14:23:51.112Z,50.30
2018-02-10T14:26:18.694Z,51.30
2018-02-10T14:28:46.301Z,50.30
2018-02-10T14:31:13.853Z,50.40
2018-02-10T14:33:41.458Z,50.30
2018-02-10T14:36:09.896Z,50.50
2018-02-10T14:38:38.253Z,51.20
2018-02-10T14:41:07.485Z,50.80
2018-02-10T14:43:36.140Z,50.90
2018-02-10T14:46:04.467Z,51.40
2018-02-10T14:48:32.812Z,51.60
2018-02-10T14:51:01.181Z,51.90
2018-02-10T14:53:28.846Z,52.50
2018-02-10T14:55:56.413Z,52.30
2018-02-10T14:58:23.967Z,52.00
2018-02-10T15:00:52.429Z,51.70
2018-02-10T15:03:19.974Z,51.80
2018-02-10T15:05:47.645Z,51.80
2018-02-10T15:08:16.021Z,52.40
2018-02-10T15:10:43.581Z,52.20
2018-02-10T15:13:11.177Z,52.10
2018-02-10T15:15:39.227Z,52.60
2018-02-10T15:18:06.782Z,52.90
2018-02-10T15:20:34.356Z,52.70
2018-02-10T15:23:02.105Z,52.80
2018-02-10T15:25:29.665Z,53.20
2018-02-10T15:27:57.985Z,53.90
2018-02-10T15:30:38.322Z,53.30
2018-02-10T15:33:18.390Z,53.50
2018-02-10T15:35:46.173Z,53.40
2018-02-10T15:38:13.776Z,53.90
2018-02-10T15:40:41.388Z,54.20
2018-02-10T15:43:09.142Z,54.00
2018-02-10T15:45:36.729Z,54.10
2018-02-10T15:48:04.296Z,54.10
2018-02-10T15:50:31.967Z,54.10
2018-02-10T15:52:59.521Z,54.10
2018-02-10T15:55:27.122Z,54.30
2018-02-10T15:57:55.643Z,54.60
2018-02-10T16:00:24.044Z,54.80
2018-02-10T16:02:51.622Z,54.80
2018-02-10T16:05:19.313Z,55.00
2018-02-10T16:07:46.935Z,54.60
2018-02-10T16:10:14.981Z,54.80
2018-02-10T16:12:43.508Z,55.30
2018-02-10T16:15:11.077Z,55.30
2018-02-10T16:17:38.630Z,55.10
2018-02-10T16:20:06.325Z,55.20
2018-02-10T16:22:33.987Z,55.60
2018-02-10T16:25:01.542Z,55.40
2018-02-10T16:27:30.165Z,55.60
2018-02-10T16:29:57.788Z,55.70
2018-02-10T16:32:25.487Z,55.90
2018-02-10T16:34:53.215Z,55.90
2018-02-10T16:37:20.777Z,56.20
2018-02-10T16:39:48.377Z,56.50
2018-02-10T16:42:16.158Z,56.90
2018-02-10T16:44:44.495Z,57.00
2018-02-10T16:47:12.050Z,57.10
2018-02-10T16:49:39.724Z,57.40
2018-02-10T16:52:08.134Z,58.00
2018-02-10T16:54:35.746Z,58.00
2018-02-10T16:57:04.255Z,57.80
2018-02-10T16:59:31.831Z,58.20
2018-02-10T17:01:59.377Z,58.20
2018-02-10T17:04:27.781Z,58.70
2018-02-10T17:06:55.378Z,58.70
2018-02-10T17:09:23.031Z,58.80
2018-02-10T17:11:50.620Z,58.90
2018-02-10T17:14:19.000Z,59.10
2018-02-10T17:16:46.657Z,59.20
2018-02-10T17:19:14.210Z,59.10
2018-02-10T17:21:41.760Z,59.30
2018-02-10T17:24:09.417Z,59.50
2018-02-10T17:26:36.997Z,59.40
2018-02-10T17:29:05.613Z,59.00
2018-02-10T17:31:33.379Z,59.20
2018-02-10T17:34:01.722Z,59.30
2018-02-10T17:36:29.469Z,59.60
2018-02-10T17:38:57.940Z,59.20
2018-02-10T17:41:26.427Z,59.50
2018-02-10T17:43:54.231Z,59.40
2018-02-10T17:46:22.668Z,58.70
2018-02-10T17:48:51.020Z,59.10
2018-02-10T17:51:19.497Z,59.50
2018-02-10T17:53:47.862Z,59.40
2018-02-10T17:56:15.635Z,59.40
2018-02-10T17:58:44.002Z,59.50
2018-02-10T18:01:11.610Z,59.50
2018-02-10T18:03:39.967Z,59.50
2018-02-10T18:06:07.634Z,59.50
2018-02-10T18:08:36.010Z,59.30
2018-02-10T18:11:04.511Z,59.10
2018-02-10T18:13:32.155Z,59.20
2018-02-10T18:15:59.783Z,59.30
2018-02-10T18:18:27.739Z,59.20
2018-02-10T18:20:55.404Z,59.70
2018-02-10T18:23:22.958Z,60.20
2018-02-10T18:25:50.538Z,60.20
2018-02-10T18:28:18.253Z,60.30
2018-02-10T18:30:46.754Z,60.20
2018-02-10T18:33:15.215Z,60.40
2018-02-10T18:35:44.052Z,60.50
2018-02-10T18:38:13.976Z,60.30
2018-02-10T18:40:41.583Z,60.20
2018-02-10T18:43:09.967Z,60.70
2018-02-10T18:45:38.607Z,60.70
2018-02-10T18:48:06.241Z,60.50
2018-02-10T18:50:34.522Z,60.50
2018-02-10T18:53:02.228Z,60.60
2018-02-10T18:55:29.935Z,60.80
2018-02-10T18:57:57.601Z,60.90
2018-02-10T19:00:25.323Z,60.80
2018-02-10T19:02:53.051Z,60.60
2018-02-10T19:05:22.158Z,61.00
2018-02-10T19:07:51.811Z,60.70
2018-02-10T19:10:20.330Z,61.40
2018-02-10T19:12:48.044Z,61.20
2018-02-10T19:15:16.001Z,61.30
2018-02-10T19:17:43.652Z,61.30
2018-02-10T19:20:12.082Z,61.60
2018-02-10T19:22:39.807Z,61.60
2018-02-10T19:25:07.514Z,61.60
2018-02-10T19:27:36.147Z,61.60
2018-02-10T19:30:04.363Z,61.60
2018-02-10T19:32:31.971Z,61.40
2018-02-10T19:34:59.538Z,61.70
2018-02-10T19:37:27.984Z,61.60
2018-02-10T19:39:56.339Z,61.70
2018-02-10T19:42:24.670Z,61.90
2018-02-10T19:44:52.309Z,61.80
2018-02-10T19:47:20.654Z,62.00
2018-02-10T19:49:48.283Z,62.10
2018-02-10T19:52:16.667Z,62.60
2018-02-10T19:54:44.363Z,62.60
2018-02-10T19:57:12.036Z,62.30
2018-02-10T19:59:39.669Z,62.10
2018-02-10T20:02:07.380Z,62.10
2018-02-10T20:04:36.180Z,62.10
2018-02-10T20:07:04.431Z,62.10
2018-02-10T20:09:32.115Z,62.60
2018-02-10T20:11:59.787Z,62.70
2018-02-10T20:14:27.587Z,62.80
2018-02-10T20:19:35.457Z,62.50
2018-02-10T20:22:04.947Z,62.60
2018-02-10T20:24:34.291Z,62.60
2018-02-10T20:27:02.599Z,62.60
2018-02-10T20:29:30.312Z,62.60
2018-02-10T20:31:58.915Z,62.90
2018-02-10T20:34:27.306Z,62.70
2018-02-10T20:36:54.914Z,62.70
2018-02-10T20:39:22.597Z,62.70
2018-02-10T20:41:53.358Z,62.60
2018-02-10T20:44:21.750Z,63.00
2018-02-10T20:46:50.471Z,62.80
2018-02-10T20:49:18.056Z,62.70
2018-02-10T20:51:45.599Z,62.90
2018-02-10T20:56:51.995Z,62.30
2018-02-10T20:59:20.402Z,62.50
2018-02-10T21:01:48.011Z,62.60
2018-02-10T21:04:15.598Z,62.70
2018-02-10T21:06:43.933Z,62.80
2018-02-10T21:09:11.519Z,62.90
2018-02-10T21:11:39.062Z,62.50
2018-02-10T21:14:06.728Z,62.30
2018-02-10T21:16:34.343Z,62.20
2018-02-10T21:19:02.654Z,62.30
2018-02-10T21:21:30.240Z,62.40
2018-02-10T21:23:58.603Z,62.40
2018-02-10T21:26:26.191Z,62.30
2018-02-10T21:28:53.776Z,62.40
2018-02-10T21:31:21.375Z,62.60
2018-02-10T21:33:49.793Z,62.60
2018-02-10T21:36:17.363Z,62.60
2018-02-10T21:38:45.716Z,62.40
2018-02-10T21:41:14.089Z,62.20
2018-02-10T21:43:41.635Z,62.10
2018-02-10T21:46:09.271Z,62.20
2018-02-10T21:48:36.812Z,62.20
2018-02-10T21:51:04.386Z,62.30
2018-02-10T21:53:32.706Z,61.90
2018-02-10T21:56:00.275Z,61.90
2018-02-10T21:58:27.864Z,61.70
2018-02-10T22:00:55.441Z,61.90
2018-02-10T22:03:23.057Z,61.80
2018-02-10T22:05:50.658Z,61.80
2018-02-10T22:08:18.210Z,61.90
2018-02-10T22:10:45.780Z,61.70
2018-02-10T22:13:13.408Z,61.50
2018-02-10T22:15:40.970Z,61.60
2018-02-10T22:18:08.620Z,61.50
2018-02-10T22:20:36.926Z,61.50
2018-02-10T22:23:05.193Z,61.50
2018-02-10T22:25:32.793Z,61.50
2018-02-10T22:28:00.394Z,61.60
2018-02-10T22:30:28.111Z,61.50
2018-02-10T22:32:55.712Z,61.40
2018-02-10T22:35:23.310Z,61.70
2018-02-10T22:37:51.667Z,61.80
2018-02-10T22:40:20.030Z,61.20
2018-02-10T22:42:48.404Z,61.30
2018-02-10T22:45:15.964Z,61.30
2018-02-10T22:47:44.273Z,61.30
2018-02-10T22:50:11.842Z,61.30
2018-02-10T22:52:40.156Z,61.40
2018-02-10T22:55:07.738Z,61.40
2018-02-10T22:57:36.236Z,61.50
2018-02-10T23:00:03.868Z,61.60
2018-02-10T23:02:31.497Z,61.30
2018-02-10T23:04:59.066Z,61.30
2018-02-10T23:07:26.636Z,61.20
2018-02-10T23:09:54.996Z,61.40
2018-02-10T23:12:22.609Z,61.40
2018-02-10T23:14:50.212Z,61.40
2018-02-10T23:17:17.826Z,61.10
2018-02-10T23:19:45.403Z,61.10
2018-02-10T23:22:12.952Z,61.20
2018-02-10T23:24:40.548Z,61.20
2018-02-10T23:27:08.133Z,61.00
2018-02-10T23:29:35.670Z,61.10
2018-02-10T23:32:03.241Z,61.00
2018-02-10T23:34:31.570Z,60.80
2018-02-10T23:36:59.327Z,60.80
2018-02-10T23:39:26.889Z,60.80
2018-02-10T23:41:54.462Z,60.60
2018-02-10T23:44:22.041Z,60.90
2018-02-10T23:46:49.664Z,61.20
2018-02-10T23:49:17.204Z,61.10
2018-02-10T23:51:44.775Z,60.80
2018-02-10T23:54:12.337Z,60.70
2018-02-10T23:56:39.874Z,61.00
2018-02-10T23:59:07.471Z,60.70
